Terminal Aerodrome Forecast
Issued by NWS Jackson, MS

Home | Current Version | Previous Version | Text Only | Print | Product List | Glossary On
Versions: 1 2 3 4 5 6 7 8 9 10 11 12 13 14
000
FTUS44 KJAN 030500
TAFMEI
TAF
KMEI 030539Z 0306/0406 02004KT 4SM BR OVC003
     FM030700 12003KT 1/4SM FG OVC001
     FM031500 18004KT 4SM BR OVC003
     FM031700 18005KT 6SM BR OVC007
     FM032300 18004KT 4SM BR OVC003=

USA.gov is the U.S. government's official web portal to all federal, state and local government web resources and services.